createdAt,value
2024-03-02T00:01:17.514Z,96575.34
2024-03-02T00:03:45.197Z,96572.22
2024-03-02T00:06:11.969Z,96571.38
2024-03-02T00:08:39.191Z,96574.78
2024-03-02T00:11:06.059Z,96512.97
2024-03-02T00:13:33.576Z,96535.41
2024-03-02T00:16:00.760Z,96582.63
2024-03-02T00:18:37.316Z,96576.06
2024-03-02T00:21:04.813Z,96583.13
2024-03-02T00:23:32.914Z,96580.78
2024-03-02T00:26:01.490Z,96572.88
2024-03-02T00:28:38.698Z,96580.75
2024-03-02T00:31:13.528Z,96575.97
2024-03-02T00:33:48.518Z,96580.97
2024-03-02T00:36:16.967Z,96497.66
2024-03-02T00:38:55.346Z,96581.47
2024-03-02T00:41:25.677Z,96579.28
2024-03-02T00:44:10.581Z,96496.63
2024-03-02T00:46:38.831Z,96572.63
2024-03-02T00:49:13.011Z,96564.84
2024-03-02T00:51:40.946Z,96569.50
2024-03-02T00:54:10.521Z,96537.13
2024-03-02T00:56:37.470Z,96554.69
2024-03-02T00:59:04.308Z,96543.91
2024-03-02T01:01:31.104Z,96480.56
2024-03-02T01:03:57.982Z,96545.72
2024-03-02T01:06:24.887Z,96545.16
2024-03-02T01:08:53.398Z,96555.25
2024-03-02T01:11:24.128Z,96545.34
2024-03-02T01:13:52.036Z,96558.56
2024-03-02T01:16:18.968Z,96543.03
2024-03-02T01:18:46.065Z,96561.75
2024-03-02T01:21:13.087Z,96540.84
2024-03-02T01:23:40.047Z,96511.22
2024-03-02T01:26:06.978Z,96457.88
2024-03-02T01:28:33.830Z,96491.69
2024-03-02T01:31:00.677Z,96522.53
2024-03-02T01:33:27.447Z,96538.94
2024-03-02T01:35:54.231Z,96468.72
2024-03-02T01:38:21.532Z,96476.53
2024-03-02T01:40:48.424Z,96540.59
2024-03-02T01:43:15.161Z,96535.00
2024-03-02T01:45:42.095Z,96532.69
2024-03-02T01:48:09.283Z,96541.03
2024-03-02T01:50:36.545Z,96539.53
2024-03-02T01:53:04.360Z,96538.19
2024-03-02T01:55:31.986Z,96493.00
2024-03-02T01:58:00.097Z,96532.09
2024-03-02T02:00:28.328Z,96521.03
2024-03-02T02:02:56.129Z,96525.31
2024-03-02T02:05:23.503Z,96520.75
2024-03-02T02:07:50.587Z,96536.91
2024-03-02T02:10:17.584Z,96460.34
2024-03-02T02:12:44.533Z,96498.59
2024-03-02T02:15:32.110Z,96518.53
2024-03-02T02:18:00.280Z,96518.53
2024-03-02T02:20:27.363Z,96525.50
2024-03-02T02:23:04.689Z,96523.84
2024-03-02T02:25:31.492Z,96528.63
2024-03-02T02:27:59.811Z,96516.72
2024-03-02T02:30:29.509Z,96525.16
2024-03-02T02:32:56.821Z,96537.91
2024-03-02T02:35:25.367Z,96445.19
2024-03-02T02:37:54.504Z,96520.44
2024-03-02T02:40:21.317Z,96523.59
2024-03-02T02:42:48.655Z,96538.00
2024-03-02T02:45:16.206Z,96488.72
2024-03-02T02:47:43.821Z,96433.72
2024-03-02T02:50:12.188Z,96517.38
2024-03-02T02:52:41.343Z,96477.44
2024-03-02T02:55:10.282Z,96533.16
2024-03-02T02:57:39.098Z,96482.28
2024-03-02T03:00:15.223Z,96534.81
2024-03-02T03:02:43.879Z,96530.81
2024-03-02T03:05:11.954Z,96512.97
2024-03-02T03:07:40.707Z,96532.44
2024-03-02T03:10:08.748Z,96535.22
2024-03-02T03:12:36.772Z,96546.34
2024-03-02T03:15:05.950Z,96479.66
2024-03-02T03:17:33.118Z,96450.59
2024-03-02T03:20:00.056Z,96544.88
2024-03-02T03:22:26.937Z,96542.03
2024-03-02T03:24:54.322Z,96501.91
2024-03-02T03:27:21.149Z,96537.13
2024-03-02T03:29:48.049Z,96550.03
2024-03-02T03:32:15.200Z,96540.25
2024-03-02T03:34:42.404Z,96543.97
2024-03-02T03:37:09.278Z,96526.78
2024-03-02T03:39:37.459Z,96542.75
2024-03-02T03:42:04.755Z,96463.16
2024-03-02T03:44:31.542Z,96543.19
2024-03-02T03:46:58.227Z,96542.53
2024-03-02T03:49:24.992Z,96536.94
2024-03-02T03:51:51.850Z,96544.63
2024-03-02T03:54:18.704Z,96517.97
2024-03-02T03:56:45.483Z,96539.34
2024-03-02T03:59:12.240Z,96522.03
2024-03-02T04:01:39.086Z,96520.44
2024-03-02T04:04:05.907Z,96534.31
2024-03-02T04:06:33.233Z,96529.13
2024-03-02T04:09:00.069Z,96431.00
2024-03-02T04:11:26.885Z,96540.09
2024-03-02T04:13:56.006Z,96537.75
2024-03-02T04:16:24.252Z,96528.00
2024-03-02T04:18:50.934Z,96505.09
2024-03-02T04:21:17.761Z,96526.50
2024-03-02T04:23:44.633Z,96533.84
2024-03-02T04:26:11.505Z,96525.06
2024-03-02T04:28:38.254Z,96519.38
2024-03-02T04:31:05.114Z,96519.31
2024-03-02T04:33:31.946Z,96521.66
2024-03-02T04:35:58.914Z,96519.03
2024-03-02T04:38:25.660Z,96522.66
2024-03-02T04:40:52.391Z,96522.94
2024-03-02T04:43:20.409Z,96522.19
2024-03-02T04:45:47.453Z,96521.09
2024-03-02T04:48:15.269Z,96530.88
2024-03-02T04:50:42.193Z,96527.16
2024-03-02T04:53:09.160Z,96491.72
2024-03-02T04:55:36.001Z,96523.91
2024-03-02T04:58:02.824Z,96527.09
2024-03-02T05:00:29.670Z,96525.28
2024-03-02T05:02:56.466Z,96534.31
2024-03-02T05:05:23.378Z,96487.53
2024-03-02T05:07:50.085Z,96489.69
2024-03-02T05:10:16.821Z,96530.44
2024-03-02T05:12:43.689Z,96508.25
2024-03-02T05:15:12.215Z,96535.22
2024-03-02T05:17:39.732Z,96539.91
2024-03-02T05:20:10.126Z,96547.25
2024-03-02T05:22:38.199Z,96488.38
2024-03-02T05:25:06.144Z,96548.81
2024-03-02T05:27:35.703Z,96549.78
2024-03-02T05:30:02.985Z,96542.13
2024-03-02T05:32:29.826Z,96547.75
2024-03-02T05:34:56.525Z,96499.19
2024-03-02T05:37:23.327Z,96491.31
2024-03-02T05:39:50.583Z,96501.88
2024-03-02T05:42:20.406Z,96520.00
2024-03-02T05:44:47.213Z,96558.56
2024-03-02T05:47:14.114Z,96559.13
2024-03-02T05:49:40.968Z,96566.78
2024-03-02T05:52:08.192Z,96455.19
2024-03-02T05:54:35.026Z,96514.69
2024-03-02T05:57:18.521Z,96474.34
2024-03-02T05:59:45.443Z,96565.69
2024-03-02T06:02:12.193Z,96542.69
2024-03-02T06:04:38.886Z,96590.16
2024-03-02T06:07:05.640Z,96531.72
2024-03-02T06:09:32.371Z,96519.41
2024-03-02T06:11:59.066Z,96565.25
2024-03-02T06:14:25.742Z,96558.28
2024-03-02T06:16:52.434Z,96559.59
2024-03-02T06:19:19.154Z,96576.47
2024-03-02T06:21:45.974Z,96558.94
2024-03-02T06:24:12.781Z,96560.97
2024-03-02T06:26:40.755Z,96555.41
2024-03-02T06:29:07.590Z,96531.13
2024-03-02T06:31:34.334Z,96575.53
2024-03-02T06:34:01.125Z,96613.63
2024-03-02T06:36:27.909Z,96552.47
2024-03-02T06:38:54.672Z,96566.38
2024-03-02T06:41:21.444Z,96549.97
2024-03-02T06:43:48.168Z,96524.72
2024-03-02T06:46:16.306Z,96541.41
2024-03-02T06:48:43.046Z,96551.69
2024-03-02T06:51:09.816Z,96522.94
2024-03-02T06:53:36.460Z,96541.78
2024-03-02T06:56:03.340Z,96534.84
2024-03-02T06:58:30.129Z,96546.47
2024-03-02T07:00:56.949Z,96559.81
2024-03-02T07:03:23.790Z,96532.34
2024-03-02T07:05:51.846Z,96548.63
2024-03-02T07:08:18.784Z,96451.06
2024-03-02T07:10:45.513Z,96522.97
2024-03-02T07:13:12.187Z,96531.47
2024-03-02T07:16:01.171Z,96560.50
2024-03-02T07:18:28.267Z,96555.25
2024-03-02T07:20:56.726Z,96430.94
2024-03-02T07:23:26.291Z,96555.09
2024-03-02T07:28:22.938Z,96550.59
2024-03-02T07:31:00.308Z,96511.34
2024-03-02T07:33:27.355Z,96542.00
2024-03-02T07:35:56.269Z,96556.34
2024-03-02T07:38:23.845Z,96560.38
2024-03-02T07:40:56.957Z,96478.06
2024-03-02T07:43:23.692Z,96504.34
2024-03-02T07:45:50.423Z,96547.59
2024-03-02T07:48:17.222Z,96524.75
2024-03-02T07:50:44.352Z,96396.66
2024-03-02T07:53:11.127Z,96547.81
2024-03-02T07:55:37.910Z,96538.91
2024-03-02T07:58:04.849Z,96459.56
2024-03-02T08:00:31.726Z,96531.09
2024-03-02T08:02:58.724Z,96571.28
2024-03-02T08:05:25.519Z,96457.41
2024-03-02T08:07:55.278Z,96545.03
2024-03-02T08:10:22.107Z,96546.97
2024-03-02T08:12:48.946Z,96521.53
2024-03-02T08:15:15.858Z,96521.88
2024-03-02T08:17:49.866Z,96529.69
2024-03-02T08:20:17.179Z,96529.53
2024-03-02T08:22:44.044Z,96517.16
2024-03-02T08:25:11.242Z,96542.31
2024-03-02T08:27:39.991Z,96512.28
2024-03-02T08:30:08.372Z,96531.69
2024-03-02T08:32:35.761Z,96546.66
2024-03-02T08:35:02.810Z,96526.16
2024-03-02T08:37:29.654Z,96516.84
2024-03-02T08:39:56.602Z,96509.88
2024-03-02T08:42:24.073Z,96514.97
2024-03-02T08:44:51.113Z,96516.59
2024-03-02T08:47:18.045Z,96369.09
2024-03-02T08:49:44.756Z,96501.72
2024-03-02T08:52:11.492Z,96492.69
2024-03-02T08:54:39.289Z,96515.41
2024-03-02T08:57:07.164Z,96520.84
2024-03-02T08:59:34.463Z,96524.00
2024-03-02T09:02:01.362Z,96554.56
2024-03-02T09:04:30.826Z,96560.75
2024-03-02T09:06:59.409Z,96548.56
2024-03-02T09:09:26.220Z,96549.44
2024-03-02T09:11:53.246Z,96470.75
2024-03-02T09:14:20.640Z,96531.88
2024-03-02T09:16:47.478Z,96540.84
2024-03-02T09:19:14.276Z,96532.66
2024-03-02T09:21:41.133Z,96563.66
2024-03-02T09:24:08.101Z,96551.06
2024-03-02T09:26:34.978Z,96321.97
2024-03-02T09:29:01.695Z,96535.94
2024-03-02T09:31:28.401Z,96515.94
2024-03-02T09:33:55.319Z,96383.00
2024-03-02T09:36:23.686Z,96523.66
2024-03-02T09:38:50.618Z,96512.88
2024-03-02T09:41:17.672Z,96525.69
2024-03-02T09:43:44.921Z,96543.19
2024-03-02T09:46:12.436Z,96470.56
2024-03-02T09:48:40.069Z,96524.84
2024-03-02T09:51:06.905Z,96520.31
2024-03-02T09:53:35.521Z,96511.69
2024-03-02T09:56:02.674Z,96504.56
2024-03-02T09:58:30.143Z,96450.75
2024-03-02T10:00:57.038Z,96452.03
2024-03-02T10:03:30.224Z,96492.22
2024-03-02T10:05:57.007Z,96353.56
2024-03-02T10:08:23.678Z,96428.34
2024-03-02T10:10:50.448Z,96470.56
2024-03-02T10:13:19.114Z,96439.44
2024-03-02T10:15:45.974Z,96458.50
2024-03-02T10:18:13.946Z,96499.75
2024-03-02T10:20:41.990Z,96464.84
2024-03-02T10:23:17.332Z,96475.91
2024-03-02T10:25:51.982Z,96507.66
2024-03-02T10:28:24.779Z,96146.88
2024-03-02T10:30:54.188Z,96456.00
2024-03-02T10:33:21.347Z,96432.22
2024-03-02T10:35:51.162Z,96481.38
2024-03-02T10:38:18.974Z,96423.41
2024-03-02T10:40:49.746Z,96479.09
2024-03-02T10:43:17.020Z,96478.28
2024-03-02T10:45:44.699Z,96493.63
2024-03-02T10:48:11.481Z,96489.31
2024-03-02T10:50:38.212Z,96470.38
2024-03-02T10:53:07.038Z,96466.34
2024-03-02T10:55:34.546Z,96484.66
2024-03-02T10:58:06.251Z,96472.53
2024-03-02T11:00:39.289Z,96477.78
2024-03-02T11:03:07.804Z,96446.25
2024-03-02T11:05:39.631Z,96468.63
2024-03-02T11:08:12.944Z,96481.00
2024-03-02T11:10:49.554Z,96393.06
2024-03-02T11:13:16.972Z,96483.38
2024-03-02T11:15:46.057Z,96413.88
2024-03-02T11:18:13.894Z,96480.78
2024-03-02T11:20:42.278Z,96433.13
2024-03-02T11:23:10.535Z,96457.28
2024-03-02T11:25:37.831Z,96466.94
2024-03-02T11:28:10.785Z,96472.28
2024-03-02T11:30:39.204Z,96459.84
2024-03-02T11:33:10.673Z,96473.94
2024-03-02T11:35:49.816Z,96395.69
2024-03-02T11:38:16.861Z,96412.06
2024-03-02T11:40:44.284Z,96441.00
2024-03-02T11:43:12.435Z,96375.06
2024-03-02T11:45:44.418Z,96453.81
2024-03-02T11:48:16.082Z,96445.59
2024-03-02T11:50:42.923Z,96436.13
2024-03-02T11:53:15.122Z,96451.03
2024-03-02T11:55:42.166Z,96442.19
2024-03-02T11:58:09.602Z,96432.44
2024-03-02T12:00:36.853Z,96430.19
2024-03-02T12:03:07.733Z,96397.97
2024-03-02T12:05:34.922Z,96438.53
2024-03-02T12:08:07.432Z,96382.16
2024-03-02T12:10:35.758Z,96351.19
2024-03-02T12:13:04.657Z,96408.84
2024-03-02T12:15:33.490Z,96417.81
2024-03-02T12:18:02.841Z,96405.00
2024-03-02T12:20:31.253Z,96415.44
2024-03-02T12:23:03.655Z,96416.63
2024-03-02T12:25:32.914Z,96425.84
2024-03-02T12:28:02.178Z,96412.63
2024-03-02T12:30:32.495Z,96430.78
2024-03-02T12:32:59.778Z,96415.78
2024-03-02T12:35:26.828Z,96393.50
2024-03-02T12:37:55.447Z,96400.41
2024-03-02T12:40:24.270Z,96391.38
2024-03-02T12:42:52.081Z,96407.00
2024-03-02T12:45:25.948Z,96444.66
2024-03-02T12:47:54.163Z,96335.50
2024-03-02T12:50:22.180Z,96394.47
2024-03-02T12:52:56.180Z,96337.03
2024-03-02T12:55:24.446Z,96400.72
2024-03-02T12:57:55.512Z,96331.75
2024-03-02T13:00:23.936Z,96397.38
2024-03-02T13:02:52.708Z,96394.44
2024-03-02T13:05:20.871Z,96401.34
2024-03-02T13:07:51.659Z,96384.97
2024-03-02T13:10:19.529Z,96367.56
2024-03-02T13:12:47.090Z,96375.47
2024-03-02T13:15:17.527Z,96398.13
2024-03-02T13:17:47.089Z,96398.22
2024-03-02T13:20:15.821Z,96399.97
2024-03-02T13:22:43.056Z,96404.59
2024-03-02T13:25:11.623Z,96395.78
2024-03-02T13:27:38.641Z,96396.88
2024-03-02T13:30:07.082Z,96401.22
2024-03-02T13:32:34.139Z,96396.97
2024-03-02T13:35:01.504Z,96404.59
2024-03-02T13:37:28.302Z,96287.94
2024-03-02T13:39:55.253Z,96373.50
2024-03-02T13:42:22.252Z,96414.53
2024-03-02T13:44:51.112Z,96406.69
2024-03-02T13:47:18.318Z,96397.66
2024-03-02T13:49:47.136Z,96079.22
2024-03-02T13:52:18.466Z,96406.50
2024-03-02T13:54:47.121Z,96403.84
2024-03-02T13:57:14.155Z,96410.72
2024-03-02T13:59:42.167Z,96408.41
2024-03-02T14:02:10.277Z,96408.31
2024-03-02T14:04:37.846Z,96353.84
2024-03-02T14:07:05.172Z,96404.13
2024-03-02T14:09:32.169Z,96404.84
2024-03-02T14:11:59.036Z,96409.78
2024-03-02T14:14:25.900Z,96406.84
2024-03-02T14:16:53.382Z,96398.19
2024-03-02T14:19:20.282Z,96407.03
2024-03-02T14:21:48.485Z,96412.38
2024-03-02T14:24:15.527Z,96363.06
2024-03-02T14:26:42.435Z,96422.75
2024-03-02T14:29:09.510Z,96417.31
2024-03-02T14:31:36.341Z,96412.97
2024-03-02T14:34:03.354Z,96412.53
2024-03-02T14:36:30.362Z,96422.75
2024-03-02T14:38:58.510Z,96352.09
2024-03-02T14:41:25.878Z,96342.75
2024-03-02T14:43:53.073Z,96436.28
2024-03-02T14:46:20.749Z,96422.63
2024-03-02T14:48:48.011Z,96439.31
2024-03-02T14:51:15.374Z,96444.66
2024-03-02T14:53:42.835Z,96449.28
2024-03-02T14:56:09.972Z,96447.72
2024-03-02T14:58:38.039Z,96451.16
2024-03-02T15:01:06.218Z,96449.66
2024-03-02T15:03:33.653Z,96456.88
2024-03-02T15:06:00.588Z,96424.31
2024-03-02T15:08:27.422Z,96461.19
2024-03-02T15:10:57.086Z,96460.06
2024-03-02T15:13:24.668Z,96450.50
2024-03-02T15:15:51.979Z,96466.75
2024-03-02T15:18:19.188Z,96468.41
2024-03-02T15:20:45.945Z,96457.69
2024-03-02T15:23:12.709Z,96436.25
2024-03-02T15:25:39.469Z,96467.97
2024-03-02T15:28:06.448Z,96479.81
2024-03-02T15:30:33.613Z,96468.28
2024-03-02T15:33:00.899Z,96487.38
2024-03-02T15:35:27.960Z,96477.50
2024-03-02T15:37:54.758Z,96518.78
2024-03-02T15:40:22.111Z,96478.34
2024-03-02T15:42:48.850Z,96456.91
2024-03-02T15:45:15.851Z,96405.28
2024-03-02T15:47:43.488Z,96412.41
2024-03-02T15:50:10.851Z,96398.03
2024-03-02T15:52:37.892Z,96483.84
2024-03-02T15:55:07.457Z,96496.41
2024-03-02T15:57:35.288Z,96501.13
2024-03-02T16:00:02.046Z,96512.91
2024-03-02T16:02:28.783Z,96509.47
2024-03-02T16:04:55.459Z,96516.88
2024-03-02T16:07:22.149Z,96503.44
2024-03-02T16:09:48.915Z,96530.41
2024-03-02T16:12:16.624Z,96513.72
2024-03-02T16:14:43.568Z,96505.63
2024-03-02T16:17:10.648Z,96534.41
2024-03-02T16:19:40.742Z,96531.03
2024-03-02T16:22:09.673Z,96523.44
2024-03-02T16:24:36.525Z,96481.66
2024-03-02T16:27:03.367Z,96543.53
2024-03-02T16:29:30.083Z,96544.28
2024-03-02T16:31:56.995Z,96546.00
2024-03-02T16:34:23.854Z,96537.91
2024-03-02T16:36:50.839Z,96549.94
2024-03-02T16:39:17.607Z,96556.66
2024-03-02T16:41:48.089Z,96540.38
2024-03-02T16:44:15.307Z,96544.03
2024-03-02T16:46:42.143Z,96531.66
2024-03-02T16:49:09.179Z,96551.59
2024-03-02T16:51:43.655Z,96536.91
2024-03-02T16:54:10.537Z,96561.84
2024-03-02T16:56:43.885Z,96562.63
2024-03-02T16:59:11.595Z,96565.03
2024-03-02T17:01:39.162Z,96563.44
2024-03-02T17:04:08.005Z,96568.25
2024-03-02T17:06:35.662Z,96557.16
2024-03-02T17:09:03.625Z,96509.75
2024-03-02T17:11:31.985Z,96580.09
2024-03-02T17:13:59.348Z,96569.03
2024-03-02T17:16:26.446Z,96563.53
2024-03-02T17:18:53.811Z,96562.31
2024-03-02T17:21:21.157Z,96531.34
2024-03-02T17:23:48.395Z,96572.28
2024-03-02T17:26:15.289Z,96569.13
2024-03-02T17:28:43.033Z,96569.13
2024-03-02T17:31:10.339Z,96567.50
2024-03-02T17:33:37.552Z,96533.97
2024-03-02T17:36:05.364Z,96570.66
2024-03-02T17:38:32.721Z,96568.31
2024-03-02T18:15:21.658Z,96521.22
2024-03-02T18:17:48.753Z,96556.50
2024-03-02T18:20:15.575Z,96582.19
2024-03-02T18:22:42.336Z,96571.00
2024-03-02T18:25:10.505Z,96174.41
2024-03-02T18:27:37.444Z,96572.34
2024-03-02T18:30:06.677Z,96529.31
2024-03-02T18:32:34.031Z,96576.97
2024-03-02T18:35:00.943Z,96580.88
2024-03-02T18:37:27.759Z,96548.56
2024-03-02T18:39:55.008Z,96595.75
2024-03-02T18:42:21.758Z,96583.84
2024-03-02T18:44:51.177Z,96588.06
2024-03-02T18:47:18.219Z,96519.13
2024-03-02T18:49:47.899Z,96557.25
2024-03-02T18:52:14.878Z,96595.38
2024-03-02T18:54:42.487Z,96608.00
2024-03-02T18:57:10.997Z,96556.84
2024-03-02T18:59:38.380Z,96528.09
2024-03-02T19:02:05.992Z,96606.09
2024-03-02T19:04:32.938Z,96607.66
2024-03-02T19:07:00.081Z,96610.75
2024-03-02T19:09:26.976Z,96581.16
2024-03-02T19:11:54.171Z,96621.72
2024-03-02T19:14:21.008Z,96624.75
2024-03-02T19:16:47.734Z,96565.81
2024-03-02T19:19:14.618Z,96622.31
2024-03-02T19:21:41.666Z,96625.41
2024-03-02T19:24:08.668Z,96617.44
2024-03-02T19:26:35.633Z,96624.09
2024-03-02T19:29:02.416Z,96616.50
2024-03-02T19:31:29.395Z,96636.63
2024-03-02T19:33:57.302Z,96599.53
2024-03-02T19:36:24.558Z,96625.88
2024-03-02T19:38:51.850Z,96626.56
2024-03-02T19:41:21.400Z,96575.38
2024-03-02T19:43:48.185Z,96566.59
2024-03-02T19:46:16.248Z,96568.91
2024-03-02T19:48:43.536Z,96638.16
2024-03-02T19:51:10.737Z,96646.75
2024-03-02T19:53:39.072Z,96637.94
2024-03-02T19:56:06.162Z,96564.38
2024-03-02T19:58:34.666Z,96629.06
2024-03-02T20:01:01.610Z,96640.22
2024-03-02T20:03:28.900Z,96636.38
2024-03-02T20:05:55.886Z,96635.66
2024-03-02T20:08:22.689Z,96634.72
2024-03-02T20:10:49.580Z,96596.97
2024-03-02T20:13:19.207Z,96631.50
2024-03-02T20:15:46.163Z,96641.34
2024-03-02T20:18:13.887Z,96644.09
2024-03-02T20:20:41.506Z,96652.72
2024-03-02T20:23:08.446Z,96651.72
2024-03-02T20:25:35.193Z,96662.59
2024-03-02T20:28:01.996Z,96659.41
2024-03-02T20:30:28.754Z,96661.50
2024-03-02T20:32:55.615Z,96621.53
2024-03-02T20:35:22.401Z,96663.19
2024-03-02T20:37:49.145Z,96552.63
2024-03-02T20:40:20.053Z,96665.09
2024-03-02T20:42:47.520Z,96665.94
2024-03-02T20:45:17.344Z,96662.19
2024-03-02T20:47:45.485Z,96647.53
2024-03-02T20:50:12.636Z,96667.31
2024-03-02T20:52:39.492Z,96559.53
2024-03-02T20:55:07.136Z,96668.69
2024-03-02T20:57:33.934Z,96667.84
2024-03-02T21:00:00.683Z,96674.81
2024-03-02T21:02:27.640Z,96653.09
2024-03-02T21:04:54.436Z,96677.69
2024-03-02T21:07:23.021Z,96662.44
2024-03-02T21:09:49.767Z,96671.00
2024-03-02T21:12:16.540Z,96670.28
2024-03-02T21:14:43.336Z,96615.25
2024-03-02T21:17:10.042Z,96677.44
2024-03-02T21:19:37.000Z,96674.91
2024-03-02T21:22:07.022Z,96685.22
2024-03-02T21:24:34.180Z,96683.47
2024-03-02T21:27:01.007Z,96681.94
2024-03-02T21:29:27.789Z,96680.06
2024-03-02T21:31:56.350Z,96691.66
2024-03-02T21:34:23.311Z,96661.31
2024-03-02T21:36:50.182Z,96685.97
2024-03-02T21:39:17.486Z,96683.41
2024-03-02T21:41:45.806Z,96685.47
2024-03-02T21:44:12.565Z,96692.06
2024-03-02T21:46:39.349Z,96692.91
2024-03-02T21:49:06.138Z,96689.56
2024-03-02T21:51:32.940Z,96677.31
2024-03-02T21:53:59.771Z,96636.91
2024-03-02T21:56:26.489Z,96648.44
2024-03-02T21:58:53.208Z,96625.47
2024-03-02T22:01:20.216Z,96680.66
2024-03-02T22:03:47.040Z,96688.06
2024-03-02T22:06:14.307Z,96691.78
2024-03-02T22:08:41.698Z,96586.56
2024-03-02T22:11:08.484Z,96678.81
2024-03-02T22:13:37.166Z,96682.28
2024-03-02T22:16:04.340Z,96686.72
2024-03-02T22:18:31.157Z,96683.63
2024-03-02T22:20:57.874Z,96688.50
2024-03-02T22:23:24.622Z,96613.00
2024-03-02T22:25:51.387Z,96681.38
2024-03-02T22:28:18.171Z,96688.31
2024-03-02T22:30:44.911Z,96690.78
2024-03-02T22:33:11.729Z,96718.03
2024-03-02T22:35:38.526Z,96641.94
2024-03-02T22:38:05.461Z,96688.66
2024-03-02T22:40:32.281Z,96686.06
2024-03-02T22:43:00.080Z,96693.44
2024-03-02T22:45:26.894Z,96657.72
2024-03-02T22:47:55.077Z,96693.81
2024-03-02T22:50:21.887Z,96680.31
2024-03-02T22:52:48.596Z,96695.66
2024-03-02T22:55:15.630Z,96691.31
2024-03-02T22:57:42.385Z,96691.22
2024-03-02T23:00:21.534Z,96667.34
2024-03-02T23:02:48.440Z,96683.19
2024-03-02T23:05:15.323Z,96686.84
2024-03-02T23:07:42.137Z,96675.00
2024-03-02T23:10:09.101Z,96643.03
2024-03-02T23:12:35.997Z,96626.16
2024-03-02T23:15:02.770Z,96688.84
2024-03-02T23:17:29.462Z,96682.84
2024-03-02T23:19:56.167Z,96704.78
2024-03-02T23:22:23.951Z,96694.81
2024-03-02T23:24:50.710Z,96701.94
2024-03-02T23:27:17.574Z,96355.91
2024-03-02T23:29:44.665Z,96699.84
2024-03-02T23:32:12.913Z,96610.25
2024-03-02T23:34:39.935Z,96700.31
2024-03-02T23:37:07.073Z,96710.28
2024-03-02T23:40:07.482Z,96713.72
2024-03-02T23:42:34.327Z,96700.44
2024-03-02T23:45:02.941Z,96709.50
2024-03-02T23:47:29.710Z,96710.28
2024-03-02T23:49:56.364Z,96704.22
2024-03-02T23:52:23.131Z,96715.03
2024-03-02T23:54:50.003Z,96706.28
2024-03-02T23:57:16.940Z,96705.59
2024-03-02T23:59:43.747Z,96664.13
